sensor_id;sensor_type;location;lat;lon;timestamp;P1;durP1;ratioP1;P2;durP2;ratioP2
22334;SDS011;11335;43.848;25.958;2023-02-13T00:00:50;31.73;;;15.85;;
22334;SDS011;11335;43.848;25.958;2023-02-13T00:03:36;25.55;;;14.25;;
22334;SDS011;11335;43.848;25.958;2023-02-13T00:06:22;26.77;;;14.10;;
22334;SDS011;11335;43.848;25.958;2023-02-13T00:09:07;26.90;;;13.60;;
22334;SDS011;11335;43.848;25.958;2023-02-13T00:11:55;24.85;;;13.13;;
22334;SDS011;11335;43.848;25.958;2023-02-13T00:14:40;24.38;;;13.40;;
22334;SDS011;11335;43.848;25.958;2023-02-13T00:17:26;26.58;;;13.43;;
22334;SDS011;11335;43.848;25.958;2023-02-13T00:20:12;22.08;;;12.18;;
22334;SDS011;11335;43.848;25.958;2023-02-13T00:22:58;19.75;;;10.68;;
22334;SDS011;11335;43.848;25.958;2023-02-13T00:25:43;17.67;;;10.13;;
22334;SDS011;11335;43.848;25.958;2023-02-13T00:28:29;22.77;;;11.63;;
22334;SDS011;11335;43.848;25.958;2023-02-13T00:31:15;29.90;;;17.02;;
22334;SDS011;11335;43.848;25.958;2023-02-13T00:34:01;46.55;;;28.80;;
22334;SDS011;11335;43.848;25.958;2023-02-13T00:36:47;26.13;;;16.00;;
22334;SDS011;11335;43.848;25.958;2023-02-13T00:39:33;17.38;;;10.15;;
22334;SDS011;11335;43.848;25.958;2023-02-13T00:42:18;16.05;;;9.15;;
22334;SDS011;11335;43.848;25.958;2023-02-13T00:45:08;14.10;;;8.57;;
22334;SDS011;11335;43.848;25.958;2023-02-13T00:47:53;11.00;;;7.28;;
22334;SDS011;11335;43.848;25.958;2023-02-13T00:50:39;11.70;;;6.85;;
22334;SDS011;11335;43.848;25.958;2023-02-13T00:53:25;11.05;;;6.70;;
22334;SDS011;11335;43.848;25.958;2023-02-13T00:56:11;12.85;;;6.38;;
22334;SDS011;11335;43.848;25.958;2023-02-13T00:58:56;13.32;;;7.38;;
22334;SDS011;11335;43.848;25.958;2023-02-13T01:01:42;14.02;;;7.28;;
22334;SDS011;11335;43.848;25.958;2023-02-13T01:04:28;10.85;;;6.90;;
22334;SDS011;11335;43.848;25.958;2023-02-13T01:07:13;11.43;;;6.57;;
22334;SDS011;11335;43.848;25.958;2023-02-13T01:09:59;11.05;;;6.40;;
22334;SDS011;11335;43.848;25.958;2023-02-13T01:12:44;9.70;;;5.82;;
22334;SDS011;11335;43.848;25.958;2023-02-13T01:15:30;10.88;;;6.75;;
22334;SDS011;11335;43.848;25.958;2023-02-13T01:18:17;10.85;;;6.40;;
22334;SDS011;11335;43.848;25.958;2023-02-13T01:21:11;11.23;;;6.10;;
22334;SDS011;11335;43.848;25.958;2023-02-13T01:24:01;10.27;;;5.97;;
22334;SDS011;11335;43.848;25.958;2023-02-13T01:26:47;10.05;;;5.25;;
22334;SDS011;11335;43.848;25.958;2023-02-13T01:29:32;8.75;;;5.40;;
22334;SDS011;11335;43.848;25.958;2023-02-13T01:32:18;10.20;;;6.00;;
22334;SDS011;11335;43.848;25.958;2023-02-13T01:35:04;7.15;;;4.70;;
22334;SDS011;11335;43.848;25.958;2023-02-13T01:37:49;8.70;;;5.15;;
22334;SDS011;11335;43.848;25.958;2023-02-13T01:40:35;7.72;;;5.05;;
22334;SDS011;11335;43.848;25.958;2023-02-13T01:43:24;7.97;;;4.72;;
22334;SDS011;11335;43.848;25.958;2023-02-13T01:46:09;10.27;;;5.78;;
22334;SDS011;11335;43.848;25.958;2023-02-13T01:48:58;9.02;;;5.40;;
22334;SDS011;11335;43.848;25.958;2023-02-13T01:51:46;9.15;;;5.22;;
22334;SDS011;11335;43.848;25.958;2023-02-13T01:54:33;8.30;;;4.90;;
22334;SDS011;11335;43.848;25.958;2023-02-13T01:57:20;7.90;;;4.97;;
22334;SDS011;11335;43.848;25.958;2023-02-13T02:00:08;9.10;;;4.88;;
22334;SDS011;11335;43.848;25.958;2023-02-13T02:02:54;9.18;;;5.05;;
22334;SDS011;11335;43.848;25.958;2023-02-13T02:05:41;6.28;;;4.57;;
22334;SDS011;11335;43.848;25.958;2023-02-13T02:08:27;8.57;;;4.68;;
22334;SDS011;11335;43.848;25.958;2023-02-13T02:11:19;8.60;;;4.95;;
22334;SDS011;11335;43.848;25.958;2023-02-13T02:14:07;9.93;;;4.78;;
22334;SDS011;11335;43.848;25.958;2023-02-13T02:16:52;11.07;;;5.18;;
22334;SDS011;11335;43.848;25.958;2023-02-13T02:22:56;7.47;;;4.50;;
22334;SDS011;11335;43.848;25.958;2023-02-13T02:43:14;7.53;;;4.78;;
22334;SDS011;11335;43.848;25.958;2023-02-13T02:52:13;7.75;;;4.50;;
22334;SDS011;11335;43.848;25.958;2023-02-13T02:55:07;8.82;;;4.63;;
22334;SDS011;11335;43.848;25.958;2023-02-13T02:58:00;8.60;;;4.82;;
22334;SDS011;11335;43.848;25.958;2023-02-13T03:01:06;8.43;;;4.55;;
22334;SDS011;11335;43.848;25.958;2023-02-13T03:04:32;7.03;;;4.53;;
22334;SDS011;11335;43.848;25.958;2023-02-13T03:07:38;8.60;;;4.90;;
22334;SDS011;11335;43.848;25.958;2023-02-13T03:10:26;8.40;;;5.07;;
22334;SDS011;11335;43.848;25.958;2023-02-13T03:13:38;8.35;;;5.00;;
22334;SDS011;11335;43.848;25.958;2023-02-13T03:16:25;9.85;;;4.90;;
22334;SDS011;11335;43.848;25.958;2023-02-13T03:26:00;8.23;;;4.90;;
22334;SDS011;11335;43.848;25.958;2023-02-13T03:31:51;8.15;;;4.97;;
22334;SDS011;11335;43.848;25.958;2023-02-13T03:34:48;9.02;;;4.88;;
22334;SDS011;11335;43.848;25.958;2023-02-13T03:37:57;6.53;;;4.40;;
22334;SDS011;11335;43.848;25.958;2023-02-13T03:44:11;8.30;;;4.93;;
22334;SDS011;11335;43.848;25.958;2023-02-13T03:46:58;8.45;;;4.90;;
22334;SDS011;11335;43.848;25.958;2023-02-13T03:49:47;8.63;;;4.68;;
22334;SDS011;11335;43.848;25.958;2023-02-13T03:52:53;8.07;;;4.57;;
22334;SDS011;11335;43.848;25.958;2023-02-13T03:55:41;8.23;;;4.82;;
22334;SDS011;11335;43.848;25.958;2023-02-13T03:58:47;7.82;;;5.18;;
22334;SDS011;11335;43.848;25.958;2023-02-13T04:01:57;9.65;;;5.68;;
22334;SDS011;11335;43.848;25.958;2023-02-13T04:04:51;11.35;;;5.53;;
22334;SDS011;11335;43.848;25.958;2023-02-13T04:07:38;13.20;;;5.70;;
22334;SDS011;11335;43.848;25.958;2023-02-13T04:10:24;16.00;;;7.38;;
22334;SDS011;11335;43.848;25.958;2023-02-13T04:13:25;12.98;;;7.03;;
22334;SDS011;11335;43.848;25.958;2023-02-13T04:16:14;13.90;;;6.70;;
22334;SDS011;11335;43.848;25.958;2023-02-13T04:19:00;14.35;;;8.25;;
22334;SDS011;11335;43.848;25.958;2023-02-13T04:21:48;13.20;;;7.40;;
22334;SDS011;11335;43.848;25.958;2023-02-13T04:24:33;14.60;;;7.63;;
22334;SDS011;11335;43.848;25.958;2023-02-13T04:27:19;17.25;;;7.43;;
22334;SDS011;11335;43.848;25.958;2023-02-13T04:30:05;13.23;;;6.90;;
22334;SDS011;11335;43.848;25.958;2023-02-13T04:32:50;15.48;;;7.10;;
22334;SDS011;11335;43.848;25.958;2023-02-13T04:35:37;15.55;;;7.13;;
22334;SDS011;11335;43.848;25.958;2023-02-13T04:38:22;15.80;;;7.55;;
22334;SDS011;11335;43.848;25.958;2023-02-13T04:41:08;15.57;;;7.28;;
22334;SDS011;11335;43.848;25.958;2023-02-13T04:43:54;14.20;;;7.60;;
22334;SDS011;11335;43.848;25.958;2023-02-13T04:46:39;13.75;;;7.07;;
22334;SDS011;11335;43.848;25.958;2023-02-13T04:49:25;13.48;;;7.65;;
22334;SDS011;11335;43.848;25.958;2023-02-13T04:52:10;14.38;;;6.97;;
22334;SDS011;11335;43.848;25.958;2023-02-13T04:54:56;14.43;;;6.07;;
22334;SDS011;11335;43.848;25.958;2023-02-13T04:57:42;10.60;;;6.05;;
22334;SDS011;11335;43.848;25.958;2023-02-13T05:00:27;10.20;;;5.93;;
22334;SDS011;11335;43.848;25.958;2023-02-13T05:03:13;10.73;;;5.72;;
22334;SDS011;11335;43.848;25.958;2023-02-13T05:05:59;10.88;;;6.28;;
22334;SDS011;11335;43.848;25.958;2023-02-13T05:08:44;11.90;;;6.25;;
22334;SDS011;11335;43.848;25.958;2023-02-13T05:11:30;17.13;;;7.47;;
22334;SDS011;11335;43.848;25.958;2023-02-13T05:14:15;17.45;;;8.98;;
22334;SDS011;11335;43.848;25.958;2023-02-13T05:17:01;14.20;;;7.80;;
22334;SDS011;11335;43.848;25.958;2023-02-13T05:19:47;13.07;;;7.70;;
22334;SDS011;11335;43.848;25.958;2023-02-13T05:22:32;17.08;;;8.00;;
22334;SDS011;11335;43.848;25.958;2023-02-13T05:25:37;14.63;;;8.93;;
22334;SDS011;11335;43.848;25.958;2023-02-13T05:28:23;17.17;;;9.38;;
22334;SDS011;11335;43.848;25.958;2023-02-13T05:31:27;17.70;;;8.63;;
22334;SDS011;11335;43.848;25.958;2023-02-13T05:34:12;17.73;;;8.90;;
22334;SDS011;11335;43.848;25.958;2023-02-13T05:36:58;14.40;;;8.65;;
22334;SDS011;11335;43.848;25.958;2023-02-13T05:39:44;15.52;;;9.18;;
22334;SDS011;11335;43.848;25.958;2023-02-13T05:42:30;21.33;;;9.52;;
22334;SDS011;11335;43.848;25.958;2023-02-13T05:45:16;19.33;;;10.23;;
22334;SDS011;11335;43.848;25.958;2023-02-13T05:48:01;22.88;;;11.63;;
22334;SDS011;11335;43.848;25.958;2023-02-13T05:50:47;26.40;;;13.02;;
22334;SDS011;11335;43.848;25.958;2023-02-13T05:53:32;30.58;;;14.82;;
22334;SDS011;11335;43.848;25.958;2023-02-13T05:56:21;41.85;;;17.08;;
22334;SDS011;11335;43.848;25.958;2023-02-13T05:59:06;43.67;;;17.40;;
22334;SDS011;11335;43.848;25.958;2023-02-13T06:01:52;38.85;;;17.35;;
22334;SDS011;11335;43.848;25.958;2023-02-13T06:04:38;43.35;;;18.73;;
22334;SDS011;11335;43.848;25.958;2023-02-13T06:07:25;41.55;;;18.25;;
22334;SDS011;11335;43.848;25.958;2023-02-13T06:10:11;29.88;;;14.25;;
22334;SDS011;11335;43.848;25.958;2023-02-13T06:12:56;29.08;;;14.15;;
22334;SDS011;11335;43.848;25.958;2023-02-13T06:15:42;25.30;;;13.05;;
22334;SDS011;11335;43.848;25.958;2023-02-13T06:18:27;21.65;;;12.30;;
22334;SDS011;11335;43.848;25.958;2023-02-13T06:21:13;25.13;;;13.10;;
22334;SDS011;11335;43.848;25.958;2023-02-13T06:23:59;30.80;;;14.65;;
22334;SDS011;11335;43.848;25.958;2023-02-13T06:26:44;24.90;;;13.45;;
22334;SDS011;11335;43.848;25.958;2023-02-13T06:29:30;32.47;;;13.98;;
22334;SDS011;11335;43.848;25.958;2023-02-13T06:32:17;25.55;;;13.65;;
22334;SDS011;11335;43.848;25.958;2023-02-13T06:35:02;27.02;;;14.13;;
22334;SDS011;11335;43.848;25.958;2023-02-13T06:37:48;30.60;;;14.75;;
22334;SDS011;11335;43.848;25.958;2023-02-13T06:40:34;27.95;;;15.18;;
22334;SDS011;11335;43.848;25.958;2023-02-13T06:43:19;28.50;;;15.40;;
22334;SDS011;11335;43.848;25.958;2023-02-13T06:46:05;34.72;;;16.70;;
22334;SDS011;11335;43.848;25.958;2023-02-13T06:48:51;36.78;;;18.00;;
22334;SDS011;11335;43.848;25.958;2023-02-13T06:51:36;31.42;;;17.58;;
22334;SDS011;11335;43.848;25.958;2023-02-13T06:54:22;32.03;;;17.88;;
22334;SDS011;11335;43.848;25.958;2023-02-13T06:57:08;32.67;;;17.02;;
22334;SDS011;11335;43.848;25.958;2023-02-13T06:59:53;36.20;;;17.42;;
22334;SDS011;11335;43.848;25.958;2023-02-13T07:02:39;32.42;;;17.77;;
22334;SDS011;11335;43.848;25.958;2023-02-13T07:05:25;31.38;;;17.38;;
22334;SDS011;11335;43.848;25.958;2023-02-13T07:08:11;37.42;;;18.33;;
22334;SDS011;11335;43.848;25.958;2023-02-13T07:10:57;38.13;;;19.15;;
22334;SDS011;11335;43.848;25.958;2023-02-13T07:13:42;37.30;;;20.13;;
22334;SDS011;11335;43.848;25.958;2023-02-13T07:16:28;41.65;;;20.13;;
22334;SDS011;11335;43.848;25.958;2023-02-13T07:19:13;40.30;;;20.33;;
22334;SDS011;11335;43.848;25.958;2023-02-13T07:21:59;41.80;;;20.83;;
22334;SDS011;11335;43.848;25.958;2023-02-13T07:24:45;39.40;;;19.42;;
22334;SDS011;11335;43.848;25.958;2023-02-13T07:27:30;33.88;;;18.52;;
22334;SDS011;11335;43.848;25.958;2023-02-13T07:30:16;39.80;;;18.60;;
22334;SDS011;11335;43.848;25.958;2023-02-13T07:33:02;38.20;;;19.30;;
22334;SDS011;11335;43.848;25.958;2023-02-13T07:35:48;36.42;;;18.17;;
22334;SDS011;11335;43.848;25.958;2023-02-13T07:38:34;27.73;;;15.95;;
22334;SDS011;11335;43.848;25.958;2023-02-13T07:41:20;31.40;;;17.10;;
22334;SDS011;11335;43.848;25.958;2023-02-13T07:44:06;29.25;;;16.38;;
22334;SDS011;11335;43.848;25.958;2023-02-13T07:46:51;31.42;;;16.85;;
22334;SDS011;11335;43.848;25.958;2023-02-13T07:49:37;31.15;;;15.90;;
22334;SDS011;11335;43.848;25.958;2023-02-13T07:52:23;23.75;;;10.95;;
22334;SDS011;11335;43.848;25.958;2023-02-13T07:55:08;19.63;;;10.70;;
22334;SDS011;11335;43.848;25.958;2023-02-13T07:57:55;21.65;;;10.55;;
22334;SDS011;11335;43.848;25.958;2023-02-13T08:00:41;22.15;;;10.07;;
22334;SDS011;11335;43.848;25.958;2023-02-13T08:03:27;21.67;;;10.55;;
22334;SDS011;11335;43.848;25.958;2023-02-13T08:06:12;18.65;;;10.43;;
22334;SDS011;11335;43.848;25.958;2023-02-13T08:08:58;20.05;;;11.27;;
22334;SDS011;11335;43.848;25.958;2023-02-13T08:12:03;19.10;;;10.07;;
22334;SDS011;11335;43.848;25.958;2023-02-13T08:14:51;19.20;;;9.70;;
22334;SDS011;11335;43.848;25.958;2023-02-13T08:17:37;20.65;;;10.20;;
22334;SDS011;11335;43.848;25.958;2023-02-13T08:20:23;20.00;;;10.90;;
22334;SDS011;11335;43.848;25.958;2023-02-13T08:23:09;21.67;;;10.60;;
22334;SDS011;11335;43.848;25.958;2023-02-13T08:25:57;18.63;;;9.68;;
22334;SDS011;11335;43.848;25.958;2023-02-13T08:28:43;16.10;;;9.68;;
22334;SDS011;11335;43.848;25.958;2023-02-13T08:31:32;19.13;;;9.15;;
22334;SDS011;11335;43.848;25.958;2023-02-13T08:34:22;18.83;;;8.60;;
22334;SDS011;11335;43.848;25.958;2023-02-13T08:37:08;14.60;;;8.52;;
22334;SDS011;11335;43.848;25.958;2023-02-13T08:39:53;15.20;;;8.38;;
22334;SDS011;11335;43.848;25.958;2023-02-13T08:42:40;17.48;;;9.00;;
22334;SDS011;11335;43.848;25.958;2023-02-13T08:45:26;14.10;;;8.27;;
22334;SDS011;11335;43.848;25.958;2023-02-13T08:48:11;28.02;;;9.88;;
22334;SDS011;11335;43.848;25.958;2023-02-13T08:50:57;17.50;;;8.93;;
22334;SDS011;11335;43.848;25.958;2023-02-13T08:53:43;15.15;;;9.82;;
22334;SDS011;11335;43.848;25.958;2023-02-13T08:56:28;15.80;;;9.93;;
22334;SDS011;11335;43.848;25.958;2023-02-13T08:59:14;22.15;;;11.50;;
22334;SDS011;11335;43.848;25.958;2023-02-13T09:01:59;19.05;;;11.00;;
22334;SDS011;11335;43.848;25.958;2023-02-13T09:04:45;19.80;;;11.00;;
22334;SDS011;11335;43.848;25.958;2023-02-13T09:07:31;20.05;;;11.10;;
22334;SDS011;11335;43.848;25.958;2023-02-13T09:10:23;20.08;;;10.80;;
22334;SDS011;11335;43.848;25.958;2023-02-13T09:13:09;17.15;;;10.20;;
22334;SDS011;11335;43.848;25.958;2023-02-13T09:15:57;18.20;;;8.75;;
22334;SDS011;11335;43.848;25.958;2023-02-13T09:18:45;36.75;;;17.15;;
22334;SDS011;11335;43.848;25.958;2023-02-13T09:21:31;20.38;;;9.23;;
22334;SDS011;11335;43.848;25.958;2023-02-13T09:24:17;20.20;;;8.95;;
22334;SDS011;11335;43.848;25.958;2023-02-13T09:27:04;13.75;;;8.35;;
22334;SDS011;11335;43.848;25.958;2023-02-13T09:29:52;12.55;;;8.07;;
22334;SDS011;11335;43.848;25.958;2023-02-13T09:32:37;16.65;;;8.77;;
22334;SDS011;11335;43.848;25.958;2023-02-13T09:35:26;13.52;;;9.10;;
22334;SDS011;11335;43.848;25.958;2023-02-13T09:38:13;14.80;;;8.50;;
22334;SDS011;11335;43.848;25.958;2023-02-13T09:41:21;13.95;;;8.68;;
22334;SDS011;11335;43.848;25.958;2023-02-13T09:46:50;14.27;;;9.15;;
22334;SDS011;11335;43.848;25.958;2023-02-13T09:49:36;17.73;;;9.63;;
22334;SDS011;11335;43.848;25.958;2023-02-13T09:52:23;16.75;;;9.90;;
22334;SDS011;11335;43.848;25.958;2023-02-13T09:55:16;18.45;;;10.20;;
22334;SDS011;11335;43.848;25.958;2023-02-13T09:58:12;25.45;;;10.75;;
22334;SDS011;11335;43.848;25.958;2023-02-13T10:01:00;20.77;;;10.73;;
22334;SDS011;11335;43.848;25.958;2023-02-13T10:03:56;21.52;;;12.32;;
22334;SDS011;11335;43.848;25.958;2023-02-13T10:06:49;26.70;;;12.93;;
22334;SDS011;11335;43.848;25.958;2023-02-13T10:18:04;24.77;;;14.32;;
22334;SDS011;11335;43.848;25.958;2023-02-13T10:20:51;23.27;;;13.90;;
22334;SDS011;11335;43.848;25.958;2023-02-13T10:23:43;25.23;;;14.02;;
22334;SDS011;11335;43.848;25.958;2023-02-13T10:26:31;22.90;;;13.82;;
22334;SDS011;11335;43.848;25.958;2023-02-13T10:29:37;27.45;;;16.08;;
22334;SDS011;11335;43.848;25.958;2023-02-13T10:35:34;33.90;;;19.48;;
22334;SDS011;11335;43.848;25.958;2023-02-13T10:38:21;35.55;;;20.77;;
22334;SDS011;11335;43.848;25.958;2023-02-13T10:41:22;35.92;;;20.83;;
22334;SDS011;11335;43.848;25.958;2023-02-13T10:58:53;36.65;;;21.48;;
22334;SDS011;11335;43.848;25.958;2023-02-13T11:02:41;34.13;;;20.27;;
22334;SDS011;11335;43.848;25.958;2023-02-13T11:04:59;30.25;;;18.88;;
22334;SDS011;11335;43.848;25.958;2023-02-13T11:07:46;34.70;;;20.23;;
22334;SDS011;11335;43.848;25.958;2023-02-13T11:10:34;32.65;;;19.77;;
22334;SDS011;11335;43.848;25.958;2023-02-13T11:13:24;33.83;;;19.27;;
22334;SDS011;11335;43.848;25.958;2023-02-13T11:16:10;33.92;;;19.98;;
22334;SDS011;11335;43.848;25.958;2023-02-13T11:18:58;36.70;;;21.48;;
22334;SDS011;11335;43.848;25.958;2023-02-13T11:21:43;37.25;;;22.67;;
22334;SDS011;11335;43.848;25.958;2023-02-13T11:24:30;41.25;;;21.05;;
22334;SDS011;11335;43.848;25.958;2023-02-13T11:27:21;39.55;;;22.80;;
22334;SDS011;11335;43.848;25.958;2023-02-13T11:33:26;38.88;;;22.83;;
22334;SDS011;11335;43.848;25.958;2023-02-13T11:36:15;40.72;;;24.70;;
22334;SDS011;11335;43.848;25.958;2023-02-13T11:39:05;36.80;;;23.85;;
22334;SDS011;11335;43.848;25.958;2023-02-13T11:41:53;42.58;;;25.77;;
22334;SDS011;11335;43.848;25.958;2023-02-13T11:44:39;44.38;;;25.80;;
22334;SDS011;11335;43.848;25.958;2023-02-13T11:47:38;43.65;;;27.35;;
22334;SDS011;11335;43.848;25.958;2023-02-13T11:53:20;42.60;;;26.65;;
22334;SDS011;11335;43.848;25.958;2023-02-13T11:56:09;43.95;;;26.55;;
22334;SDS011;11335;43.848;25.958;2023-02-13T11:59:00;48.92;;;28.08;;
22334;SDS011;11335;43.848;25.958;2023-02-13T12:02:00;47.05;;;28.02;;
22334;SDS011;11335;43.848;25.958;2023-02-13T12:04:46;50.40;;;29.45;;
22334;SDS011;11335;43.848;25.958;2023-02-13T12:07:32;44.97;;;28.75;;
22334;SDS011;11335;43.848;25.958;2023-02-13T12:10:28;44.40;;;28.30;;
22334;SDS011;11335;43.848;25.958;2023-02-13T12:13:24;45.08;;;28.42;;
22334;SDS011;11335;43.848;25.958;2023-02-13T12:19:34;48.33;;;28.98;;
22334;SDS011;11335;43.848;25.958;2023-02-13T12:28:22;47.28;;;28.33;;
22334;SDS011;11335;43.848;25.958;2023-02-13T12:31:22;50.88;;;30.70;;
22334;SDS011;11335;43.848;25.958;2023-02-13T12:43:24;54.55;;;30.67;;
22334;SDS011;11335;43.848;25.958;2023-02-13T13:10:27;54.38;;;32.72;;
22334;SDS011;11335;43.848;25.958;2023-02-13T13:21:50;57.65;;;35.90;;
22334;SDS011;11335;43.848;25.958;2023-02-13T13:24:44;65.95;;;36.95;;
22334;SDS011;11335;43.848;25.958;2023-02-13T13:27:36;58.92;;;34.60;;
22334;SDS011;11335;43.848;25.958;2023-02-13T13:30:29;59.92;;;35.63;;
22334;SDS011;11335;43.848;25.958;2023-02-13T13:33:20;58.08;;;35.92;;
22334;SDS011;11335;43.848;25.958;2023-02-13T13:36:11;61.55;;;36.58;;
22334;SDS011;11335;43.848;25.958;2023-02-13T13:39:01;66.85;;;37.40;;
22334;SDS011;11335;43.848;25.958;2023-02-13T13:50:26;63.80;;;37.90;;
22334;SDS011;11335;43.848;25.958;2023-02-13T13:53:16;65.38;;;37.72;;
22334;SDS011;11335;43.848;25.958;2023-02-13T13:56:07;61.40;;;36.65;;
22334;SDS011;11335;43.848;25.958;2023-02-13T13:58:53;64.15;;;38.78;;
22334;SDS011;11335;43.848;25.958;2023-02-13T14:01:40;64.93;;;38.55;;
22334;SDS011;11335;43.848;25.958;2023-02-13T14:07:22;69.13;;;39.28;;
22334;SDS011;11335;43.848;25.958;2023-02-13T14:13:05;69.03;;;42.30;;
22334;SDS011;11335;43.848;25.958;2023-02-13T14:15:52;71.03;;;41.50;;
22334;SDS011;11335;43.848;25.958;2023-02-13T14:18:43;81.82;;;44.58;;
22334;SDS011;11335;43.848;25.958;2023-02-13T14:21:29;70.38;;;40.40;;
22334;SDS011;11335;43.848;25.958;2023-02-13T14:24:15;75.88;;;42.05;;
22334;SDS011;11335;43.848;25.958;2023-02-13T14:27:14;69.85;;;41.20;;
22334;SDS011;11335;43.848;25.958;2023-02-13T14:30:04;74.22;;;42.55;;
22334;SDS011;11335;43.848;25.958;2023-02-13T14:32:50;75.22;;;43.05;;
22334;SDS011;11335;43.848;25.958;2023-02-13T14:35:36;75.40;;;43.08;;
22334;SDS011;11335;43.848;25.958;2023-02-13T14:38:23;78.95;;;44.38;;
22334;SDS011;11335;43.848;25.958;2023-02-13T14:44:29;80.45;;;45.53;;
22334;SDS011;11335;43.848;25.958;2023-02-13T14:47:18;84.70;;;44.92;;
22334;SDS011;11335;43.848;25.958;2023-02-13T14:50:06;88.47;;;45.92;;
22334;SDS011;11335;43.848;25.958;2023-02-13T14:52:58;81.47;;;45.47;;
22334;SDS011;11335;43.848;25.958;2023-02-13T14:55:45;83.72;;;46.28;;
22334;SDS011;11335;43.848;25.958;2023-02-13T14:58:35;86.05;;;47.58;;
22334;SDS011;11335;43.848;25.958;2023-02-13T15:04:15;101.35;;;57.50;;
22334;SDS011;11335;43.848;25.958;2023-02-13T15:07:03;94.45;;;53.38;;
22334;SDS011;11335;43.848;25.958;2023-02-13T15:09:52;79.90;;;46.83;;
22334;SDS011;11335;43.848;25.958;2023-02-13T15:12:38;79.07;;;44.90;;
22334;SDS011;11335;43.848;25.958;2023-02-13T15:15:25;77.25;;;44.72;;
22334;SDS011;11335;43.848;25.958;2023-02-13T15:18:16;79.43;;;45.92;;
22334;SDS011;11335;43.848;25.958;2023-02-13T15:21:03;78.72;;;45.10;;
22334;SDS011;11335;43.848;25.958;2023-02-13T15:23:53;75.72;;;43.00;;
22334;SDS011;11335;43.848;25.958;2023-02-13T15:26:39;81.35;;;45.28;;
22334;SDS011;11335;43.848;25.958;2023-02-13T15:29:25;78.43;;;43.92;;
22334;SDS011;11335;43.848;25.958;2023-02-13T15:32:18;80.80;;;44.45;;
22334;SDS011;11335;43.848;25.958;2023-02-13T15:38:22;91.22;;;43.17;;
22334;SDS011;11335;43.848;25.958;2023-02-13T15:41:13;78.40;;;43.47;;
22334;SDS011;11335;43.848;25.958;2023-02-13T15:44:01;81.30;;;44.35;;
22334;SDS011;11335;43.848;25.958;2023-02-13T15:46:47;82.32;;;44.40;;
22334;SDS011;11335;43.848;25.958;2023-02-13T15:49:36;86.88;;;46.72;;
22334;SDS011;11335;43.848;25.958;2023-02-13T15:52:29;76.75;;;42.97;;
22334;SDS011;11335;43.848;25.958;2023-02-13T15:55:27;76.13;;;43.63;;
22334;SDS011;11335;43.848;25.958;2023-02-13T15:58:13;80.78;;;44.30;;
22334;SDS011;11335;43.848;25.958;2023-02-13T16:01:00;78.47;;;45.03;;
22334;SDS011;11335;43.848;25.958;2023-02-13T16:03:50;82.18;;;44.67;;
22334;SDS011;11335;43.848;25.958;2023-02-13T16:06:41;85.35;;;44.55;;
22334;SDS011;11335;43.848;25.958;2023-02-13T16:09:33;84.20;;;44.63;;
22334;SDS011;11335;43.848;25.958;2023-02-13T16:12:25;76.13;;;42.97;;
22334;SDS011;11335;43.848;25.958;2023-02-13T16:15:14;82.22;;;44.22;;
22334;SDS011;11335;43.848;25.958;2023-02-13T16:18:01;82.18;;;44.45;;
22334;SDS011;11335;43.848;25.958;2023-02-13T16:20:51;82.60;;;44.67;;
22334;SDS011;11335;43.848;25.958;2023-02-13T16:23:37;82.20;;;44.33;;
22334;SDS011;11335;43.848;25.958;2023-02-13T16:26:23;85.03;;;47.33;;
22334;SDS011;11335;43.848;25.958;2023-02-13T16:29:20;86.50;;;46.08;;
22334;SDS011;11335;43.848;25.958;2023-02-13T16:32:08;86.15;;;47.10;;
22334;SDS011;11335;43.848;25.958;2023-02-13T16:34:56;85.25;;;44.55;;
22334;SDS011;11335;43.848;25.958;2023-02-13T16:37:59;86.75;;;47.05;;
22334;SDS011;11335;43.848;25.958;2023-02-13T16:40:46;82.43;;;46.55;;
22334;SDS011;11335;43.848;25.958;2023-02-13T16:46:31;92.05;;;48.80;;
22334;SDS011;11335;43.848;25.958;2023-02-13T16:49:18;90.03;;;48.35;;
22334;SDS011;11335;43.848;25.958;2023-02-13T16:52:14;94.68;;;48.88;;
22334;SDS011;11335;43.848;25.958;2023-02-13T16:55:04;90.55;;;50.55;;
22334;SDS011;11335;43.848;25.958;2023-02-13T16:57:50;99.88;;;51.45;;
22334;SDS011;11335;43.848;25.958;2023-02-13T17:00:36;95.22;;;52.63;;
22334;SDS011;11335;43.848;25.958;2023-02-13T17:03:21;98.68;;;52.45;;
22334;SDS011;11335;43.848;25.958;2023-02-13T17:06:07;102.57;;;54.08;;
22334;SDS011;11335;43.848;25.958;2023-02-13T17:08:56;106.78;;;55.33;;
22334;SDS011;11335;43.848;25.958;2023-02-13T17:11:42;99.43;;;52.50;;
22334;SDS011;11335;43.848;25.958;2023-02-13T17:14:33;103.07;;;55.17;;
22334;SDS011;11335;43.848;25.958;2023-02-13T17:17:20;91.65;;;50.28;;
22334;SDS011;11335;43.848;25.958;2023-02-13T17:20:06;93.40;;;51.17;;
22334;SDS011;11335;43.848;25.958;2023-02-13T17:22:53;93.50;;;50.55;;
22334;SDS011;11335;43.848;25.958;2023-02-13T17:25:38;93.70;;;50.60;;
22334;SDS011;11335;43.848;25.958;2023-02-13T17:28:25;97.68;;;51.53;;
22334;SDS011;11335;43.848;25.958;2023-02-13T17:31:11;91.55;;;50.47;;
22334;SDS011;11335;43.848;25.958;2023-02-13T17:33:56;93.68;;;50.03;;
22334;SDS011;11335;43.848;25.958;2023-02-13T17:36:42;92.70;;;50.10;;
22334;SDS011;11335;43.848;25.958;2023-02-13T17:39:27;90.35;;;50.22;;
22334;SDS011;11335;43.848;25.958;2023-02-13T17:42:23;92.82;;;50.20;;
22334;SDS011;11335;43.848;25.958;2023-02-13T17:45:09;100.93;;;52.28;;
22334;SDS011;11335;43.848;25.958;2023-02-13T17:47:57;96.57;;;50.20;;
22334;SDS011;11335;43.848;25.958;2023-02-13T17:50:43;104.70;;;53.90;;
22334;SDS011;11335;43.848;25.958;2023-02-13T17:53:29;102.38;;;53.95;;
22334;SDS011;11335;43.848;25.958;2023-02-13T17:56:14;106.80;;;56.47;;
22334;SDS011;11335;43.848;25.958;2023-02-13T17:59:00;103.95;;;54.42;;
22334;SDS011;11335;43.848;25.958;2023-02-13T18:01:46;98.43;;;54.60;;
22334;SDS011;11335;43.848;25.958;2023-02-13T18:04:31;110.78;;;57.90;;
22334;SDS011;11335;43.848;25.958;2023-02-13T18:07:18;97.90;;;54.03;;
22334;SDS011;11335;43.848;25.958;2023-02-13T18:10:06;101.18;;;53.08;;
22334;SDS011;11335;43.848;25.958;2023-02-13T18:12:52;99.75;;;53.03;;
22334;SDS011;11335;43.848;25.958;2023-02-13T18:15:39;102.30;;;53.97;;
22334;SDS011;11335;43.848;25.958;2023-02-13T18:18:25;101.07;;;54.20;;
22334;SDS011;11335;43.848;25.958;2023-02-13T18:21:10;98.75;;;52.03;;
22334;SDS011;11335;43.848;25.958;2023-02-13T18:23:56;99.53;;;54.08;;
22334;SDS011;11335;43.848;25.958;2023-02-13T18:26:42;103.13;;;54.03;;
22334;SDS011;11335;43.848;25.958;2023-02-13T18:29:27;105.50;;;55.92;;
22334;SDS011;11335;43.848;25.958;2023-02-13T18:32:13;103.47;;;55.72;;
22334;SDS011;11335;43.848;25.958;2023-02-13T18:34:59;98.30;;;53.17;;
22334;SDS011;11335;43.848;25.958;2023-02-13T18:37:47;103.13;;;54.25;;
22334;SDS011;11335;43.848;25.958;2023-02-13T18:40:32;104.68;;;56.08;;
22334;SDS011;11335;43.848;25.958;2023-02-13T18:43:18;101.78;;;54.35;;
22334;SDS011;11335;43.848;25.958;2023-02-13T18:46:03;103.00;;;54.55;;
22334;SDS011;11335;43.848;25.958;2023-02-13T18:48:49;112.85;;;58.13;;